createdAt,value
2022-10-10T00:02:19.981Z,0.40
2022-10-10T00:04:50.113Z,0.20
2022-10-10T00:07:20.246Z,0.40
2022-10-10T00:09:50.714Z,0.60
2022-10-10T00:12:20.925Z,0.70
2022-10-10T00:14:51.116Z,0.40
2022-10-10T00:17:21.418Z,0.60
2022-10-10T00:19:51.613Z,0.57
2022-10-10T00:22:21.817Z,0.77
2022-10-10T00:24:52.074Z,0.90
2022-10-10T00:27:22.245Z,0.50
2022-10-10T00:29:52.498Z,0.65
2022-10-10T00:32:22.698Z,0.90
2022-10-10T00:34:53.078Z,0.55
2022-10-10T00:37:23.797Z,0.73
2022-10-10T00:39:54.150Z,1.00
2022-10-10T00:42:24.690Z,0.60
2022-10-10T00:45:25.344Z,0.57
2022-10-10T00:48:10.289Z,1.15
2022-10-10T00:50:52.737Z,0.60
2022-10-10T00:53:27.160Z,0.70
2022-10-10T00:55:58.257Z,0.80
2022-10-10T00:58:28.777Z,0.60
2022-10-10T01:00:59.043Z,0.70
2022-10-10T01:03:29.674Z,0.65
2022-10-10T01:06:00.101Z,1.63
2022-10-10T01:08:36.142Z,0.60
2022-10-10T01:11:39.323Z,0.60
2022-10-10T01:14:28.759Z,0.80
2022-10-10T01:17:21.338Z,0.80
2022-10-10T01:20:05.556Z,0.75
2022-10-10T01:22:38.605Z,0.70
2022-10-10T01:25:31.791Z,0.80
2022-10-10T01:28:08.913Z,0.50
2022-10-10T01:30:39.192Z,0.60
2022-10-10T01:33:13.371Z,0.88
2022-10-10T01:35:55.656Z,0.57
2022-10-10T01:38:45.752Z,0.40
2022-10-10T01:41:34.085Z,0.50
2022-10-10T01:44:04.285Z,0.60
2022-10-10T01:46:35.360Z,1.05
2022-10-10T01:49:06.004Z,0.50
2022-10-10T01:51:57.453Z,0.40
2022-10-10T01:54:36.754Z,0.70
2022-10-10T01:57:35.659Z,0.32
2022-10-10T02:00:09.566Z,0.40
2022-10-10T02:02:49.077Z,0.35
2022-10-10T02:05:34.191Z,0.60
2022-10-10T02:08:16.317Z,0.80
2022-10-10T02:10:57.069Z,0.40
2022-10-10T02:13:34.238Z,0.50
2022-10-10T02:16:08.769Z,0.55
2022-10-10T02:18:39.542Z,0.40
2022-10-10T02:21:11.905Z,0.43
2022-10-10T02:23:49.208Z,0.50
2022-10-10T02:26:21.264Z,0.38
2022-10-10T02:28:53.456Z,0.50
2022-10-10T02:31:43.256Z,0.40
2022-10-10T02:34:18.986Z,0.50
2022-10-10T02:36:55.628Z,0.50
2022-10-10T02:39:31.513Z,0.70
2022-10-10T02:42:01.780Z,0.85
2022-10-10T02:44:32.403Z,0.50
2022-10-10T02:47:11.519Z,0.45
2022-10-10T02:49:42.120Z,0.30
2022-10-10T02:52:13.204Z,0.30
2022-10-10T02:54:43.633Z,0.70
2022-10-10T02:57:14.250Z,0.47
2022-10-10T02:59:44.566Z,0.55
2022-10-10T03:02:14.715Z,0.50
2022-10-10T03:04:46.417Z,0.90
2022-10-10T03:07:16.679Z,0.30
2022-10-10T03:09:46.809Z,0.50
2022-10-10T03:12:17.343Z,0.40
2022-10-10T03:14:47.685Z,0.52
2022-10-10T03:17:17.943Z,0.40
2022-10-10T03:19:48.116Z,0.60
2022-10-10T03:22:18.193Z,0.40
2022-10-10T03:24:48.462Z,0.40
2022-10-10T03:27:18.640Z,0.40
2022-10-10T03:29:48.829Z,0.43
2022-10-10T03:32:19.056Z,0.45
2022-10-10T03:34:49.346Z,0.50
2022-10-10T03:37:19.485Z,0.52
2022-10-10T03:39:49.664Z,0.45
2022-10-10T03:42:20.846Z,0.40
2022-10-10T03:44:50.935Z,0.40
2022-10-10T03:47:21.131Z,0.60
2022-10-10T03:49:51.311Z,0.50
2022-10-10T03:52:21.430Z,0.52
2022-10-10T03:54:51.579Z,0.47
2022-10-10T03:57:21.766Z,0.50
2022-10-10T03:59:51.977Z,0.50
2022-10-10T04:02:22.073Z,0.40
2022-10-10T04:04:52.257Z,0.52
2022-10-10T04:07:22.380Z,0.38
2022-10-10T04:09:52.791Z,0.40
2022-10-10T04:12:23.081Z,0.50
2022-10-10T04:14:53.252Z,0.63
2022-10-10T04:17:23.527Z,0.45
2022-10-10T04:19:54.852Z,0.50
2022-10-10T04:22:25.088Z,0.68
2022-10-10T04:24:55.412Z,0.50
2022-10-10T04:27:25.673Z,0.55
2022-10-10T04:29:55.837Z,0.65
2022-10-10T04:32:27.103Z,0.60
2022-10-10T04:34:57.296Z,0.50
2022-10-10T04:37:27.648Z,0.50
2022-10-10T04:39:57.936Z,0.60
2022-10-10T04:42:28.449Z,0.40
2022-10-10T04:44:58.844Z,0.63
2022-10-10T04:47:29.220Z,0.30
2022-10-10T04:49:59.319Z,0.40
2022-10-10T04:52:29.808Z,0.60
2022-10-10T04:55:00.022Z,0.40
2022-10-10T04:57:30.130Z,0.50
2022-10-10T05:00:00.242Z,0.40
2022-10-10T05:02:30.345Z,0.50
2022-10-10T05:05:00.451Z,0.40
2022-10-10T05:07:30.594Z,0.60
2022-10-10T05:10:00.747Z,0.50
2022-10-10T05:12:30.898Z,0.50
2022-10-10T05:15:01.050Z,0.40
2022-10-10T05:17:31.177Z,0.63
2022-10-10T05:20:01.324Z,0.60
2022-10-10T05:22:31.444Z,0.40
2022-10-10T05:25:01.675Z,0.70
2022-10-10T05:27:32.242Z,0.70
2022-10-10T05:30:02.491Z,0.47
2022-10-10T05:32:32.678Z,0.43
2022-10-10T05:35:02.861Z,0.57
2022-10-10T05:37:33.713Z,0.70
2022-10-10T05:40:04.207Z,0.40
2022-10-10T05:42:34.338Z,0.40
2022-10-10T05:45:04.553Z,0.50
2022-10-10T05:47:34.718Z,0.70
2022-10-10T05:50:04.897Z,1.02
2022-10-10T05:52:36.848Z,0.38
2022-10-10T05:55:07.443Z,0.50
2022-10-10T05:57:37.667Z,0.60
2022-10-10T06:00:08.398Z,0.80
2022-10-10T06:02:38.617Z,0.68
2022-10-10T06:05:10.431Z,0.50
2022-10-10T06:08:03.660Z,0.60
2022-10-10T06:10:31.174Z,0.60
2022-10-10T06:13:01.345Z,0.52
2022-10-10T06:15:31.658Z,0.50
2022-10-10T06:18:01.768Z,0.55
2022-10-10T06:20:32.117Z,0.50
2022-10-10T06:23:02.230Z,0.43
2022-10-10T06:25:41.248Z,0.57
2022-10-10T06:28:14.377Z,0.52
2022-10-10T06:30:46.413Z,0.40
2022-10-10T06:33:17.695Z,0.55
2022-10-10T06:35:50.293Z,0.50
2022-10-10T06:38:20.651Z,0.60
2022-10-10T06:40:50.963Z,0.40
2022-10-10T06:43:21.158Z,0.50
2022-10-10T06:45:53.473Z,0.50
2022-10-10T06:48:23.626Z,0.40
2022-10-10T06:51:05.988Z,0.60
2022-10-10T06:53:36.556Z,0.50
2022-10-10T06:56:06.972Z,0.70
2022-10-10T06:58:37.675Z,0.50
2022-10-10T07:01:08.071Z,0.50
2022-10-10T07:03:38.209Z,0.50
2022-10-10T07:06:12.988Z,0.50
2022-10-10T07:08:44.084Z,0.40
2022-10-10T07:11:14.410Z,0.40
2022-10-10T07:13:44.633Z,0.52
2022-10-10T07:16:15.980Z,0.60
2022-10-10T07:18:46.233Z,0.75
2022-10-10T07:21:16.573Z,0.50
2022-10-10T07:23:46.722Z,0.40
2022-10-10T07:26:19.904Z,0.50
2022-10-10T07:28:50.813Z,0.52
2022-10-10T07:31:21.066Z,0.60
2022-10-10T07:34:08.377Z,0.50
2022-10-10T07:36:39.421Z,0.40
2022-10-10T07:39:12.675Z,0.40
2022-10-10T07:41:45.146Z,0.85
2022-10-10T07:44:15.330Z,0.70
2022-10-10T07:46:45.640Z,0.47
2022-10-10T07:49:16.002Z,0.57
2022-10-10T07:51:46.184Z,0.50
2022-10-10T07:54:16.289Z,0.50
2022-10-10T07:56:46.573Z,0.68
2022-10-10T07:59:17.041Z,0.60
2022-10-10T08:01:47.319Z,0.55
2022-10-10T08:04:17.952Z,0.70
2022-10-10T08:06:48.210Z,0.52
2022-10-10T08:09:18.524Z,0.82
2022-10-10T08:11:48.804Z,0.52
2022-10-10T08:14:19.063Z,0.80
2022-10-10T08:16:49.169Z,0.80
2022-10-10T08:19:19.451Z,0.57
2022-10-10T08:21:49.599Z,0.63
2022-10-10T08:24:19.803Z,0.70
2022-10-10T08:26:50.071Z,0.60
2022-10-10T08:29:20.723Z,0.77
2022-10-10T08:31:50.832Z,0.77
2022-10-10T08:34:21.047Z,1.00
2022-10-10T08:36:51.641Z,0.73
2022-10-10T08:39:21.820Z,1.33
2022-10-10T08:42:01.266Z,0.70
2022-10-10T08:44:51.741Z,1.10
2022-10-10T08:47:27.351Z,0.90
2022-10-10T08:50:14.989Z,0.50
2022-10-10T08:53:01.123Z,0.60
2022-10-10T08:55:37.086Z,0.77
2022-10-10T08:58:36.055Z,0.88
2022-10-10T09:01:28.845Z,0.80
2022-10-10T09:04:05.514Z,0.60
2022-10-10T09:06:57.069Z,0.70
2022-10-10T09:10:11.304Z,0.80
2022-10-10T09:12:50.344Z,0.60
2022-10-10T09:15:44.930Z,0.85
2022-10-10T09:18:18.214Z,0.70
2022-10-10T09:20:59.676Z,0.65
2022-10-10T09:23:30.124Z,0.90
2022-10-10T09:26:11.284Z,0.60
2022-10-10T09:28:54.236Z,0.65
2022-10-10T09:31:32.015Z,0.77
2022-10-10T09:34:06.170Z,0.50
2022-10-10T09:36:39.838Z,0.80
2022-10-10T09:39:25.506Z,0.90
2022-10-10T09:42:05.460Z,0.70
2022-10-10T09:44:36.302Z,0.70
2022-10-10T09:47:06.704Z,0.60
2022-10-10T09:49:37.919Z,0.70
2022-10-10T09:52:33.018Z,0.77
2022-10-10T09:55:07.810Z,0.57
2022-10-10T09:57:41.381Z,0.60
2022-10-10T10:00:25.499Z,0.60
2022-10-10T10:03:12.829Z,0.70
2022-10-10T10:05:46.635Z,0.60
2022-10-10T10:08:37.483Z,0.60
2022-10-10T10:11:08.547Z,0.90
2022-10-10T10:13:39.926Z,0.68
2022-10-10T10:16:16.248Z,0.80
2022-10-10T10:18:50.854Z,0.90
2022-10-10T10:21:25.426Z,0.70
2022-10-10T10:24:05.450Z,0.55
2022-10-10T10:26:49.669Z,0.60
2022-10-10T10:29:33.193Z,0.70
2022-10-10T10:32:44.388Z,0.52
2022-10-10T10:35:30.731Z,0.63
2022-10-10T10:38:07.389Z,0.90
2022-10-10T10:41:02.373Z,0.60
2022-10-10T10:43:41.214Z,0.70
2022-10-10T10:46:31.941Z,0.77
2022-10-10T10:49:19.714Z,0.88
2022-10-10T10:52:29.950Z,0.70
2022-10-10T10:55:14.053Z,0.90
2022-10-10T11:01:55.259Z,1.00
2022-10-10T11:05:29.003Z,0.70
2022-10-10T11:08:30.574Z,0.75
2022-10-10T11:11:09.672Z,0.93
2022-10-10T11:14:03.081Z,0.80
2022-10-10T11:16:48.553Z,0.80
2022-10-10T11:19:37.212Z,0.90
2022-10-10T11:22:21.675Z,0.88
2022-10-10T11:25:10.592Z,0.60
2022-10-10T11:28:22.554Z,0.70
2022-10-10T11:30:58.453Z,0.80
2022-10-10T11:33:57.519Z,1.13
2022-10-10T11:36:32.084Z,0.68
2022-10-10T11:39:05.281Z,0.80
2022-10-10T11:41:46.763Z,0.70
2022-10-10T11:44:40.936Z,0.75
2022-10-10T11:47:26.440Z,0.70
2022-10-10T11:50:08.565Z,0.80
2022-10-10T11:52:44.626Z,0.70
2022-10-10T11:55:29.867Z,0.68
2022-10-10T11:58:32.348Z,0.80
2022-10-10T12:01:17.351Z,0.80
2022-10-10T12:03:47.636Z,0.50
2022-10-10T12:06:22.992Z,0.90
2022-10-10T12:09:18.423Z,0.70
2022-10-10T12:11:51.293Z,0.90
2022-10-10T12:14:24.776Z,0.73
2022-10-10T12:16:55.580Z,0.82
2022-10-10T12:19:28.809Z,0.70
2022-10-10T12:22:10.142Z,0.60
2022-10-10T12:25:22.971Z,0.88
2022-10-10T12:28:16.314Z,0.63
2022-10-10T12:30:58.956Z,0.77
2022-10-10T12:33:32.080Z,0.90
2022-10-10T12:36:23.143Z,0.98
2022-10-10T12:39:07.759Z,0.93
2022-10-10T12:41:58.039Z,0.80
2022-10-10T12:44:37.474Z,1.08
2022-10-10T12:47:19.912Z,0.90
2022-10-10T12:50:26.556Z,0.90
2022-10-10T12:53:04.986Z,1.10
2022-10-10T12:55:44.914Z,1.05
2022-10-10T12:58:42.622Z,1.25
2022-10-10T13:01:27.922Z,1.50
2022-10-10T13:03:59.102Z,1.38
2022-10-10T13:06:43.105Z,1.50
2022-10-10T13:09:33.920Z,1.48
2022-10-10T13:12:08.217Z,1.60
2022-10-10T13:14:47.221Z,1.50
2022-10-10T13:17:29.476Z,1.50
2022-10-10T13:20:03.856Z,1.45
2022-10-10T13:22:38.163Z,1.35
2022-10-10T13:25:13.871Z,1.50
2022-10-10T13:27:46.055Z,1.50
2022-10-10T13:30:24.762Z,1.15
2022-10-10T13:32:57.837Z,1.40
2022-10-10T13:35:30.520Z,1.98
2022-10-10T13:38:03.990Z,1.50
2022-10-10T13:40:34.420Z,1.50
2022-10-10T13:43:04.730Z,1.63
2022-10-10T13:45:58.401Z,1.40
2022-10-10T13:48:42.023Z,1.67
2022-10-10T13:51:14.680Z,1.60
2022-10-10T13:53:46.787Z,1.58
2022-10-10T13:56:31.988Z,1.75
2022-10-10T13:59:08.017Z,1.48
2022-10-10T14:01:41.095Z,1.63
2022-10-10T14:04:25.071Z,1.70
2022-10-10T14:07:09.865Z,1.75
2022-10-10T14:10:08.549Z,1.88
2022-10-10T14:12:59.725Z,1.35
2022-10-10T14:15:44.739Z,1.85
2022-10-10T14:18:27.996Z,1.73
2022-10-10T14:20:58.193Z,2.08
2022-10-10T14:23:28.636Z,1.40
2022-10-10T14:26:00.601Z,1.90
2022-10-10T14:28:34.129Z,2.00
2022-10-10T14:31:05.902Z,1.85
2022-10-10T14:33:36.645Z,1.70
2022-10-10T14:36:08.720Z,2.13
2022-10-10T14:38:38.837Z,1.88
2022-10-10T14:41:09.198Z,1.73
2022-10-10T14:43:43.416Z,1.70
2022-10-10T14:46:21.356Z,1.88
2022-10-10T14:48:51.685Z,1.50
2022-10-10T14:51:34.249Z,1.83
2022-10-10T14:54:10.790Z,1.58
2022-10-10T14:57:07.062Z,1.85
2022-10-10T14:59:47.109Z,1.60
2022-10-10T15:02:21.689Z,1.85
2022-10-10T15:04:52.667Z,1.85
2022-10-10T15:07:23.444Z,1.85
2022-10-10T15:12:46.493Z,2.08
2022-10-10T15:15:17.058Z,1.75
2022-10-10T15:17:48.144Z,1.70
2022-10-10T15:20:18.504Z,1.83
2022-10-10T15:22:48.720Z,1.50
2022-10-10T15:25:18.884Z,1.63
2022-10-10T15:27:49.130Z,1.77
2022-10-10T15:30:19.587Z,1.80
2022-10-10T15:32:49.781Z,1.63
2022-10-10T15:35:23.256Z,1.98
2022-10-10T15:37:53.470Z,1.90
2022-10-10T15:40:25.888Z,1.55
2022-10-10T15:42:56.305Z,2.10
2022-10-10T15:48:17.593Z,2.00
2022-10-10T15:50:47.947Z,1.90
2022-10-10T15:53:18.117Z,1.77
2022-10-10T15:55:49.842Z,1.60
2022-10-10T15:58:20.042Z,1.70
2022-10-10T16:00:50.270Z,2.17
2022-10-10T16:03:20.505Z,1.88
2022-10-10T16:05:50.749Z,1.80
2022-10-10T16:08:20.981Z,1.45
2022-10-10T16:10:51.154Z,1.85
2022-10-10T16:13:21.372Z,1.90
2022-10-10T16:16:04.191Z,1.42
2022-10-10T16:18:39.978Z,1.65
2022-10-10T16:21:20.622Z,1.88
2022-10-10T16:23:57.065Z,1.33
2022-10-10T16:26:33.631Z,1.70
2022-10-10T16:29:04.654Z,1.63
2022-10-10T16:31:38.324Z,1.55
2022-10-10T16:34:09.739Z,1.63
2022-10-10T16:36:39.981Z,1.70
2022-10-10T16:39:10.115Z,1.55
2022-10-10T16:41:48.192Z,1.55
2022-10-10T16:44:19.858Z,1.85
2022-10-10T16:46:50.205Z,1.60
2022-10-10T16:49:22.449Z,1.50
2022-10-10T16:51:52.986Z,1.65
2022-10-10T16:54:23.132Z,1.58
2022-10-10T16:56:54.277Z,1.67
2022-10-10T16:59:24.413Z,1.70
2022-10-10T17:01:54.835Z,1.50
2022-10-10T17:04:25.053Z,1.80
2022-10-10T17:06:55.391Z,1.73
2022-10-10T17:09:25.690Z,1.80
2022-10-10T17:11:55.819Z,1.70
2022-10-10T17:14:26.097Z,1.90
2022-10-10T17:17:12.888Z,2.03
2022-10-10T17:19:43.782Z,1.50
2022-10-10T17:22:13.897Z,1.73
2022-10-10T17:24:44.074Z,1.70
2022-10-10T17:27:14.313Z,1.50
2022-10-10T17:29:44.515Z,1.88
2022-10-10T17:32:14.685Z,1.60
2022-10-10T17:34:44.773Z,1.70
2022-10-10T17:37:15.053Z,1.83
2022-10-10T17:39:45.195Z,1.70
2022-10-10T17:42:15.350Z,1.60
2022-10-10T17:44:50.447Z,1.58
2022-10-10T17:47:24.163Z,2.17
2022-10-10T17:49:54.605Z,1.88
2022-10-10T17:52:26.521Z,1.70
2022-10-10T17:54:56.619Z,1.90
2022-10-10T17:57:26.831Z,1.50
2022-10-10T17:59:57.071Z,1.75
2022-10-10T18:02:27.199Z,1.52
2022-10-10T18:04:57.360Z,1.52
2022-10-10T18:07:27.930Z,1.80
2022-10-10T18:09:58.101Z,1.30
2022-10-10T18:12:29.123Z,1.65
2022-10-10T18:14:59.420Z,1.65
2022-10-10T18:17:29.693Z,1.85
2022-10-10T18:19:59.859Z,1.45
2022-10-10T18:22:30.192Z,1.67
2022-10-10T18:25:00.345Z,1.70
2022-10-10T18:27:31.849Z,1.73
2022-10-10T18:30:02.039Z,1.50
2022-10-10T18:32:32.169Z,1.50
2022-10-10T18:35:02.273Z,1.90
2022-10-10T18:37:32.412Z,2.08
2022-10-10T18:40:02.577Z,1.50
2022-10-10T18:42:32.685Z,1.98
2022-10-10T18:45:02.877Z,1.85
2022-10-10T18:47:32.999Z,1.80
2022-10-10T18:50:03.107Z,1.38
2022-10-10T18:52:33.248Z,1.92
2022-10-10T18:55:03.461Z,1.75
2022-10-10T18:57:33.594Z,1.70
2022-10-10T19:00:03.714Z,1.70
2022-10-10T19:02:33.915Z,1.65
2022-10-10T19:05:04.045Z,1.60
2022-10-10T19:07:34.192Z,1.70
2022-10-10T19:10:05.600Z,1.77
2022-10-10T19:12:36.022Z,1.70
2022-10-10T19:15:06.551Z,1.65
2022-10-10T19:17:37.465Z,1.67
2022-10-10T19:20:08.369Z,1.63
2022-10-10T19:22:38.616Z,2.05
2022-10-10T19:25:09.367Z,1.52
2022-10-10T19:27:39.732Z,1.48
2022-10-10T19:30:10.687Z,1.50
2022-10-10T19:32:41.156Z,1.58
2022-10-10T19:35:11.547Z,1.83
2022-10-10T19:37:41.790Z,1.65
2022-10-10T19:40:12.439Z,1.90
2022-10-10T19:42:42.599Z,1.25
2022-10-10T19:45:13.127Z,1.50
2022-10-10T19:47:43.299Z,1.60
2022-10-10T19:50:13.510Z,1.52
2022-10-10T19:52:43.625Z,1.40
2022-10-10T19:55:13.779Z,1.73
2022-10-10T19:57:43.939Z,1.50
2022-10-10T20:00:14.862Z,1.52
2022-10-10T20:02:46.332Z,1.45
2022-10-10T20:05:16.700Z,1.58
2022-10-10T20:07:46.807Z,1.58
2022-10-10T20:10:16.945Z,1.00
2022-10-10T20:12:47.459Z,1.50
2022-10-10T20:15:17.636Z,1.10
2022-10-10T20:17:47.796Z,1.15
2022-10-10T20:20:18.069Z,1.42
2022-10-10T20:22:48.203Z,1.00
2022-10-10T20:25:18.388Z,1.30
2022-10-10T20:27:48.556Z,1.30
2022-10-10T20:30:18.769Z,1.23
2022-10-10T20:32:48.936Z,1.10
2022-10-10T20:35:20.293Z,1.15
2022-10-10T20:37:50.428Z,1.38
2022-10-10T20:40:20.580Z,1.17
2022-10-10T20:42:50.755Z,1.30
2022-10-10T20:45:20.832Z,1.13
2022-10-10T20:47:51.716Z,1.23
2022-10-10T20:50:21.833Z,1.40
2022-10-10T20:52:51.953Z,1.20
2022-10-10T20:55:22.143Z,1.00
2022-10-10T20:57:52.346Z,0.95
2022-10-10T21:00:22.638Z,1.20
2022-10-10T21:02:52.816Z,1.00
2022-10-10T21:05:22.930Z,1.20
2022-10-10T21:07:53.295Z,1.30
2022-10-10T21:10:23.426Z,1.35
2022-10-10T21:12:53.538Z,1.00
2022-10-10T21:15:23.680Z,1.30
2022-10-10T21:17:53.815Z,1.38
2022-10-10T21:20:23.949Z,1.30
2022-10-10T21:22:54.119Z,1.10
2022-10-10T21:25:24.232Z,0.93
2022-10-10T21:27:54.454Z,1.15
2022-10-10T21:30:29.588Z,0.88
2022-10-10T21:32:59.992Z,0.93
2022-10-10T21:35:30.186Z,1.00
2022-10-10T21:38:00.299Z,0.98
2022-10-10T21:40:30.824Z,1.30
2022-10-10T21:43:00.940Z,1.00
2022-10-10T21:45:31.103Z,1.05
2022-10-10T21:48:01.267Z,1.00
2022-10-10T21:50:31.933Z,1.23
2022-10-10T21:53:02.575Z,1.50
2022-10-10T21:55:32.745Z,1.02
2022-10-10T21:58:03.142Z,0.90
2022-10-10T22:00:33.356Z,1.08
2022-10-10T22:03:03.535Z,0.93
2022-10-10T22:05:35.611Z,1.00
2022-10-10T22:08:05.873Z,0.98
2022-10-10T22:10:36.346Z,1.00
2022-10-10T22:13:06.642Z,1.02
2022-10-10T22:15:37.048Z,1.25
2022-10-10T22:18:07.368Z,1.38
2022-10-10T22:20:37.475Z,1.08
2022-10-10T22:23:07.616Z,1.13
2022-10-10T22:25:37.845Z,1.40
2022-10-10T22:28:07.996Z,1.20
2022-10-10T22:30:38.277Z,1.35
2022-10-10T22:33:08.421Z,0.93
2022-10-10T22:35:39.481Z,1.20
2022-10-10T22:38:09.956Z,1.27
2022-10-10T22:40:40.601Z,1.23
2022-10-10T22:43:10.883Z,1.70
2022-10-10T22:45:42.403Z,1.48
2022-10-10T22:48:13.020Z,1.50
2022-10-10T22:50:43.282Z,1.73
2022-10-10T22:53:13.648Z,1.35
2022-10-10T22:55:44.656Z,1.23
2022-10-10T22:58:14.970Z,1.10
2022-10-10T23:00:45.632Z,1.17
2022-10-10T23:03:15.808Z,1.60
2022-10-10T23:05:47.293Z,1.08
2022-10-10T23:08:17.738Z,1.33
2022-10-10T23:10:48.885Z,1.17
2022-10-10T23:13:19.077Z,1.60
2022-10-10T23:15:49.317Z,1.30
2022-10-10T23:18:19.663Z,1.20
2022-10-10T23:20:50.994Z,1.70
2022-10-10T23:23:21.608Z,1.50
2022-10-10T23:25:51.866Z,1.38
2022-10-10T23:28:22.449Z,1.40
2022-10-10T23:30:52.747Z,1.52
2022-10-10T23:33:22.917Z,1.42
2022-10-10T23:36:04.729Z,1.40
2022-10-10T23:38:35.742Z,1.35
2022-10-10T23:41:06.364Z,1.45
2022-10-10T23:43:36.838Z,1.20
2022-10-10T23:46:07.769Z,1.30
2022-10-10T23:48:38.552Z,1.60
2022-10-10T23:51:09.436Z,1.52
2022-10-10T23:53:39.917Z,1.60
2022-10-10T23:56:11.162Z,1.50
2022-10-10T23:58:41.428Z,1.70
